PWSweather.com
Personal Weather Stations
Station Observations
PICKERING
North Yorkshire, PickeringGB

North YorkshirePickeringGB

Lat: 54.2494, Lon: -0.7725

Elevation: 192

Station Type: Oregon Scientific WMR100

http://www.yorkshirewalker.co.uk/weather/

High Low Average
Temperature 49.1°F9.5°C 41.5°F5.3°C 46.0°F7.8°C
Dew Point 42.8°F6.0°C 37.4°F3.0°C 41.3°F5.2°C
Winds 12.5 mph 20.1 kmh 0.1 mph 0.2 kmh 5.0 mph SW8.0 kmh SW
Wind Gusts 17.7 mph28.5 kmh 0.9 mph1.4 kmh 8.0 mph12.9 kmh
Humidity 86% 78% 82%
Pressure 29.39 in995.3 mb 28.35 in960.0 mb -
Precipitation 0.46 in11.7 mm - -
Hour Temp Dew Point Humidity Winds Wind Gusts Pressure Precip Precip Rate Daily Precip Total
12:00 AM 48.6°F9.2°C 42.8°F6.0°C 81% 10.4 mph WSW16.7 kmh WSW 15.2 mph24.5 kmh 29.39 in995.3 mb 0.00 in0.0 mm 0.00 in0.0 mm 0.00 in0.0 mm
12:05 AM 48.6°F9.2°C 42.8°F6.0°C 81% 10.8 mph WSW17.4 kmh WSW 16.6 mph26.7 kmh 29.36 in994.2 mb 0.00 in0.0 mm 0.00 in0.0 mm 0.00 in0.0 mm
12:10 AM 48.6°F9.2°C 42.8°F6.0°C 81% 10.2 mph WSW16.4 kmh WSW 16.6 mph26.7 kmh 29.36 in994.2 mb 0.00 in0.0 mm 0.00 in0.0 mm 0.00 in0.0 mm
12:15 AM 48.4°F9.1°C 42.8°F6.0°C 81% 11.4 mph WSW18.3 kmh WSW 15.7 mph25.3 kmh 29.36 in994.2 mb 0.00 in0.0 mm 0.00 in0.0 mm 0.00 in0.0 mm
12:20 AM 48.4°F9.1°C 42.8°F6.0°C 81% 12.4 mph WSW20.0 kmh WSW 15.7 mph25.3 kmh 29.36 in994.2 mb 0.00 in0.0 mm 0.00 in0.0 mm 0.00 in0.0 mm
12:25 AM 48.4°F9.1°C 42.8°F6.0°C 81% 11.4 mph WSW18.3 kmh WSW 14.8 mph23.8 kmh 29.36 in994.2 mb 0.00 in0.0 mm 0.00 in0.0 mm 0.00 in0.0 mm
12:30 AM 48.2°F9.0°C 42.8°F6.0°C 80% 11.5 mph WSW18.5 kmh WSW 15.7 mph25.3 kmh 29.36 in994.2 mb 0.00 in0.0 mm 0.00 in0.0 mm 0.00 in0.0 mm
12:35 AM 48.0°F8.9°C 42.8°F6.0°C 80% 11.3 mph WSW18.2 kmh WSW 15.7 mph25.3 kmh 29.33 in993.2 mb 0.00 in0.0 mm 0.00 in0.0 mm 0.00 in0.0 mm
12:40 AM 48.0°F8.9°C 42.8°F6.0°C 80% 10.7 mph WSW17.2 kmh WSW 17.0 mph27.4 kmh 29.33 in993.2 mb 0.00 in0.0 mm 0.00 in0.0 mm 0.00 in0.0 mm
12:45 AM 48.0°F8.9°C 42.8°F6.0°C 80% 11.9 mph WSW19.2 kmh WSW 17.0 mph27.4 kmh 29.33 in993.2 mb 0.00 in0.0 mm 0.00 in0.0 mm 0.00 in0.0 mm
12:50 AM 48.0°F8.9°C 42.8°F6.0°C 80% 12.5 mph WSW20.1 kmh WSW 13.9 mph22.4 kmh 29.36 in994.2 mb 0.00 in0.0 mm 0.00 in0.0 mm 0.00 in0.0 mm
12:55 AM 48.0°F8.9°C 42.8°F6.0°C 80% 12.5 mph WSW20.1 kmh WSW 15.9 mph25.6 kmh 29.36 in994.2 mb 0.00 in0.0 mm 0.00 in0.0 mm 0.00 in0.0 mm
01:00 AM 47.8°F8.8°C 42.8°F6.0°C 80% 12.0 mph WSW19.3 kmh WSW 17.7 mph28.5 kmh 29.36 in994.2 mb 0.00 in0.0 mm 0.00 in0.0 mm 0.00 in0.0 mm
01:05 AM 47.7°F8.7°C 42.8°F6.0°C 80% 10.7 mph WSW17.2 kmh WSW 17.7 mph28.5 kmh 29.30 in992.2 mb 0.00 in0.0 mm 0.00 in0.0 mm 0.00 in0.0 mm
01:10 AM 47.7°F8.7°C 42.8°F6.0°C 80% 11.2 mph W18.0 kmh W 14.3 mph23.0 kmh 29.30 in992.2 mb 0.00 in0.0 mm 0.00 in0.0 mm 0.00 in0.0 mm
01:15 AM 47.5°F8.6°C 42.8°F6.0°C 80% 10.9 mph W17.5 kmh W 14.3 mph23.0 kmh 29.30 in992.2 mb 0.00 in0.0 mm 0.00 in0.0 mm 0.00 in0.0 mm
01:20 AM 47.5°F8.6°C 42.8°F6.0°C 80% 10.2 mph WSW16.4 kmh WSW 12.8 mph20.6 kmh 29.24 in990.2 mb 0.00 in0.0 mm 0.00 in0.0 mm 0.00 in0.0 mm
01:25 AM 47.3°F8.5°C 42.8°F6.0°C 80% 9.5 mph WSW15.3 kmh WSW 12.8 mph20.6 kmh 29.24 in990.2 mb 0.00 in0.0 mm 0.00 in0.0 mm 0.00 in0.0 mm
01:30 AM 47.3°F8.5°C 42.8°F6.0°C 80% 8.6 mph WSW13.8 kmh WSW 12.5 mph20.1 kmh 29.24 in990.2 mb 0.00 in0.0 mm 0.00 in0.0 mm 0.00 in0.0 mm
01:35 AM 47.3°F8.5°C 42.8°F6.0°C 80% 8.7 mph WSW14.0 kmh WSW 12.5 mph20.1 kmh 29.27 in991.2 mb 0.00 in0.0 mm 0.00 in0.0 mm 0.00 in0.0 mm
01:40 AM 47.1°F8.4°C 42.8°F6.0°C 80% 8.9 mph WSW14.3 kmh WSW 12.3 mph19.8 kmh 29.27 in991.2 mb 0.00 in0.0 mm 0.00 in0.0 mm 0.00 in0.0 mm
01:45 AM 47.3°F8.5°C 42.8°F6.0°C 80% 9.9 mph WSW15.9 kmh WSW 13.4 mph21.6 kmh 29.27 in991.2 mb 0.00 in0.0 mm 0.00 in0.0 mm 0.00 in0.0 mm
01:50 AM 47.5°F8.6°C 42.8°F6.0°C 80% 10.2 mph WSW16.4 kmh WSW 14.8 mph23.8 kmh 29.27 in991.2 mb 0.00 in0.0 mm 0.00 in0.0 mm 0.00 in0.0 mm
01:55 AM 47.3°F8.5°C 42.8°F6.0°C 80% 9.0 mph WSW14.5 kmh WSW 14.8 mph23.8 kmh 29.27 in991.2 mb 0.00 in0.0 mm 0.00 in0.0 mm 0.00 in0.0 mm
02:00 AM 47.3°F8.5°C 42.8°F6.0°C 80% 7.5 mph WSW12.1 kmh WSW 10.5 mph16.9 kmh 29.27 in991.2 mb 0.00 in0.0 mm 0.00 in0.0 mm 0.00 in0.0 mm
02:05 AM 47.3°F8.5°C 42.8°F6.0°C 79% 8.3 mph SW13.4 kmh SW 13.0 mph20.9 kmh 29.27 in991.2 mb 0.00 in0.0 mm 0.00 in0.0 mm 0.00 in0.0 mm
02:10 AM 47.3°F8.5°C 42.8°F6.0°C 80% 7.3 mph WSW11.7 kmh WSW 13.0 mph20.9 kmh 29.27 in991.2 mb 0.00 in0.0 mm 0.00 in0.0 mm 0.00 in0.0 mm
02:15 AM 47.1°F8.4°C 42.8°F6.0°C 80% 6.1 mph W9.8 kmh W 10.1 mph16.3 kmh 29.27 in991.2 mb 0.00 in0.0 mm 0.00 in0.0 mm 0.00 in0.0 mm
02:20 AM 46.9°F8.3°C 42.8°F6.0°C 80% 6.2 mph WSW10.0 kmh WSW 10.1 mph16.3 kmh 29.27 in991.2 mb 0.00 in0.0 mm 0.00 in0.0 mm 0.00 in0.0 mm
02:25 AM 46.9°F8.3°C 42.8°F6.0°C 80% 6.2 mph WSW10.0 kmh WSW 8.7 mph14.0 kmh 29.27 in991.2 mb 0.00 in0.0 mm 0.00 in0.0 mm 0.00 in0.0 mm
02:30 AM 46.8°F8.2°C 41.0°F5.0°C 80% 5.6 mph WSW9.0 kmh WSW 8.7 mph14.0 kmh 29.27 in991.2 mb 0.00 in0.0 mm 0.00 in0.0 mm 0.00 in0.0 mm
02:35 AM 46.8°F8.2°C 41.0°F5.0°C 80% 4.3 mph WSW6.9 kmh WSW 7.6 mph12.2 kmh 29.27 in991.2 mb 0.00 in0.0 mm 0.00 in0.0 mm 0.00 in0.0 mm
02:40 AM 46.6°F8.1°C 41.0°F5.0°C 80% 3.7 mph WSW6.0 kmh WSW 6.5 mph10.5 kmh 29.27 in991.2 mb 0.00 in0.0 mm 0.00 in0.0 mm 0.00 in0.0 mm
02:45 AM 46.8°F8.2°C 41.0°F5.0°C 80% 3.7 mph WSW6.0 kmh WSW 6.3 mph10.1 kmh 29.27 in991.2 mb 0.00 in0.0 mm 0.00 in0.0 mm 0.00 in0.0 mm
02:50 AM 46.6°F8.1°C 41.0°F5.0°C 80% 4.3 mph WSW6.9 kmh WSW 6.5 mph10.5 kmh 29.27 in991.2 mb 0.00 in0.0 mm 0.00 in0.0 mm 0.00 in0.0 mm
02:55 AM 46.6°F8.1°C 41.0°F5.0°C 80% 4.6 mph WSW7.4 kmh WSW 10.1 mph16.3 kmh 29.27 in991.2 mb 0.00 in0.0 mm 0.00 in0.0 mm 0.00 in0.0 mm
03:00 AM 46.4°F8.0°C 41.0°F5.0°C 80% 4.9 mph WSW7.9 kmh WSW 10.1 mph16.3 kmh 29.27 in991.2 mb 0.00 in0.0 mm 0.00 in0.0 mm 0.00 in0.0 mm
03:05 AM 46.0°F7.8°C 41.0°F5.0°C 80% 4.1 mph WSW6.6 kmh WSW 7.8 mph12.6 kmh 29.27 in991.2 mb 0.00 in0.0 mm 0.00 in0.0 mm 0.00 in0.0 mm
03:10 AM 46.0°F7.8°C 41.0°F5.0°C 80% 3.4 mph WSW5.5 kmh WSW 7.8 mph12.6 kmh 29.27 in991.2 mb 0.00 in0.0 mm 0.00 in0.0 mm 0.00 in0.0 mm
03:15 AM 46.0°F7.8°C 41.0°F5.0°C 80% 2.5 mph SW4.0 kmh SW 4.9 mph7.9 kmh 29.27 in991.2 mb 0.00 in0.0 mm 0.00 in0.0 mm 0.00 in0.0 mm
03:20 AM 46.2°F7.9°C 41.0°F5.0°C 80% 2.6 mph SW4.2 kmh SW 4.9 mph7.9 kmh 29.27 in991.2 mb 0.00 in0.0 mm 0.00 in0.0 mm 0.00 in0.0 mm
03:25 AM 46.2°F7.9°C 41.0°F5.0°C 80% 2.8 mph SW4.5 kmh SW 4.0 mph6.4 kmh 29.27 in991.2 mb 0.00 in0.0 mm 0.00 in0.0 mm 0.00 in0.0 mm
03:30 AM 46.2°F7.9°C 41.0°F5.0°C 80% 3.0 mph WSW4.8 kmh WSW 4.3 mph6.9 kmh 29.27 in991.2 mb 0.00 in0.0 mm 0.00 in0.0 mm 0.00 in0.0 mm
03:35 AM 46.2°F7.9°C 41.0°F5.0°C 81% 3.2 mph WNW5.1 kmh WNW 4.3 mph6.9 kmh 29.27 in991.2 mb 0.00 in0.0 mm 0.00 in0.0 mm 0.00 in0.0 mm
03:40 AM 46.2°F7.9°C 41.0°F5.0°C 81% 2.2 mph WNW3.5 kmh WNW 4.3 mph6.9 kmh 29.27 in991.2 mb 0.00 in0.0 mm 0.00 in0.0 mm 0.00 in0.0 mm
03:45 AM 46.4°F8.0°C 41.0°F5.0°C 81% 1.5 mph WSW2.4 kmh WSW 3.8 mph6.1 kmh 29.27 in991.2 mb 0.00 in0.0 mm 0.00 in0.0 mm 0.00 in0.0 mm
03:50 AM 46.4°F8.0°C 41.0°F5.0°C 81% 2.6 mph WSW4.2 kmh WSW 6.3 mph10.1 kmh 29.27 in991.2 mb 0.00 in0.0 mm 0.00 in0.0 mm 0.00 in0.0 mm
03:55 AM 46.4°F8.0°C 41.0°F5.0°C 81% 4.6 mph WSW7.4 kmh WSW 7.2 mph11.6 kmh 29.27 in991.2 mb 0.00 in0.0 mm 0.00 in0.0 mm 0.00 in0.0 mm
04:00 AM 46.4°F8.0°C 41.0°F5.0°C 81% 4.8 mph WSW7.7 kmh WSW 10.7 mph17.2 kmh 29.27 in991.2 mb 0.00 in0.0 mm 0.00 in0.0 mm 0.00 in0.0 mm
04:05 AM 46.4°F8.0°C 41.0°F5.0°C 81% 3.8 mph WSW6.1 kmh WSW 10.7 mph17.2 kmh 29.27 in991.2 mb 0.00 in0.0 mm 0.00 in0.0 mm 0.00 in0.0 mm
04:10 AM 46.6°F8.1°C 41.0°F5.0°C 81% 4.0 mph WSW6.4 kmh WSW 8.7 mph14.0 kmh 29.27 in991.2 mb 0.00 in0.0 mm 0.00 in0.0 mm 0.00 in0.0 mm
04:15 AM 46.6°F8.1°C 41.0°F5.0°C 81% 5.3 mph WSW8.5 kmh WSW 8.7 mph14.0 kmh 29.27 in991.2 mb 0.00 in0.0 mm 0.00 in0.0 mm 0.00 in0.0 mm
04:20 AM 46.6°F8.1°C 41.0°F5.0°C 81% 5.2 mph WSW8.4 kmh WSW 8.7 mph14.0 kmh 29.27 in991.2 mb 0.00 in0.0 mm 0.00 in0.0 mm 0.00 in0.0 mm
04:25 AM 46.4°F8.0°C 41.0°F5.0°C 81% 4.8 mph SW7.7 kmh SW 7.4 mph11.9 kmh 29.24 in990.2 mb 0.00 in0.0 mm 0.00 in0.0 mm 0.00 in0.0 mm
04:30 AM 46.4°F8.0°C 41.0°F5.0°C 81% 5.6 mph WSW9.0 kmh WSW 8.7 mph14.0 kmh 29.24 in990.2 mb 0.00 in0.0 mm 0.00 in0.0 mm 0.00 in0.0 mm
04:35 AM 46.4°F8.0°C 41.0°F5.0°C 81% 7.3 mph WSW11.7 kmh WSW 10.7 mph17.2 kmh 29.24 in990.2 mb 0.00 in0.0 mm 0.00 in0.0 mm 0.00 in0.0 mm
04:40 AM 46.2°F7.9°C 41.0°F5.0°C 81% 8.5 mph WSW13.7 kmh WSW 10.7 mph17.2 kmh 29.18 in988.1 mb 0.00 in0.0 mm 0.00 in0.0 mm 0.00 in0.0 mm
04:45 AM 45.9°F7.7°C 41.0°F5.0°C 81% 9.1 mph WSW14.6 kmh WSW 12.1 mph19.5 kmh 29.18 in988.1 mb 0.00 in0.0 mm 0.00 in0.0 mm 0.00 in0.0 mm
04:50 AM 45.7°F7.6°C 41.0°F5.0°C 81% 8.7 mph WSW14.0 kmh WSW 12.1 mph19.5 kmh 29.18 in988.1 mb 0.00 in0.0 mm 0.00 in0.0 mm 0.00 in0.0 mm
04:55 AM 45.5°F7.5°C 41.0°F5.0°C 82% 8.4 mph WSW13.5 kmh WSW 12.5 mph20.1 kmh 29.21 in989.2 mb 0.00 in0.0 mm 0.00 in0.0 mm 0.00 in0.0 mm
05:00 AM 45.5°F7.5°C 41.0°F5.0°C 82% 8.0 mph WSW12.9 kmh WSW 12.5 mph20.1 kmh 29.21 in989.2 mb 0.00 in0.0 mm 0.00 in0.0 mm 0.00 in0.0 mm
05:05 AM 45.1°F7.3°C 41.0°F5.0°C 82% 6.6 mph WSW10.6 kmh WSW 10.1 mph16.3 kmh 29.21 in989.2 mb 0.00 in0.0 mm 0.00 in0.0 mm 0.00 in0.0 mm
05:10 AM 45.1°F7.3°C 41.0°F5.0°C 82% 6.1 mph WSW9.8 kmh WSW 8.7 mph14.0 kmh 29.21 in989.2 mb 0.00 in0.0 mm 0.00 in0.0 mm 0.00 in0.0 mm
05:15 AM 45.1°F7.3°C 41.0°F5.0°C 82% 6.7 mph WSW10.8 kmh WSW 9.6 mph15.4 kmh 29.21 in989.2 mb 0.00 in0.0 mm 0.00 in0.0 mm 0.00 in0.0 mm
05:20 AM 45.0°F7.2°C 41.0°F5.0°C 82% 7.1 mph WSW11.4 kmh WSW 9.6 mph15.4 kmh 29.21 in989.2 mb 0.00 in0.0 mm 0.00 in0.0 mm 0.00 in0.0 mm
05:25 AM 45.0°F7.2°C 41.0°F5.0°C 82% 7.3 mph WSW11.7 kmh WSW 8.7 mph14.0 kmh 29.21 in989.2 mb 0.00 in0.0 mm 0.00 in0.0 mm 0.00 in0.0 mm
05:30 AM 45.0°F7.2°C 41.0°F5.0°C 82% 8.3 mph WSW13.4 kmh WSW 10.1 mph16.3 kmh 29.21 in989.2 mb 0.00 in0.0 mm 0.00 in0.0 mm 0.00 in0.0 mm
05:35 AM 45.0°F7.2°C 41.0°F5.0°C 82% 9.0 mph WSW14.5 kmh WSW 10.7 mph17.2 kmh 29.21 in989.2 mb 0.00 in0.0 mm 0.00 in0.0 mm 0.00 in0.0 mm
05:40 AM 44.8°F7.1°C 39.2°F4.0°C 82% 8.0 mph WSW12.9 kmh WSW 10.7 mph17.2 kmh 29.18 in988.1 mb 0.00 in0.0 mm 0.00 in0.0 mm 0.00 in0.0 mm
05:45 AM 44.8°F7.1°C 39.2°F4.0°C 82% 6.6 mph WSW10.6 kmh WSW 11.0 mph17.7 kmh 29.18 in988.1 mb 0.00 in0.0 mm 0.00 in0.0 mm 0.00 in0.0 mm
05:50 AM 44.8°F7.1°C 39.2°F4.0°C 82% 6.0 mph WSW9.7 kmh WSW 11.0 mph17.7 kmh 29.18 in988.1 mb 0.00 in0.0 mm 0.00 in0.0 mm 0.00 in0.0 mm
05:55 AM 45.0°F7.2°C 41.0°F5.0°C 82% 6.4 mph WSW10.3 kmh WSW 9.2 mph14.8 kmh 29.18 in988.1 mb 0.00 in0.0 mm 0.00 in0.0 mm 0.00 in0.0 mm
06:00 AM 45.0°F7.2°C 41.0°F5.0°C 82% 7.5 mph WSW12.1 kmh WSW 13.0 mph20.9 kmh 29.18 in988.1 mb 0.00 in0.0 mm 0.00 in0.0 mm 0.00 in0.0 mm
06:05 AM 45.1°F7.3°C 41.0°F5.0°C 82% 8.3 mph WSW13.4 kmh WSW 13.0 mph20.9 kmh 29.18 in988.1 mb 0.00 in0.0 mm 0.00 in0.0 mm 0.00 in0.0 mm
06:10 AM 45.1°F7.3°C 41.0°F5.0°C 82% 8.2 mph WSW13.2 kmh WSW 13.0 mph20.9 kmh 29.18 in988.1 mb 0.00 in0.0 mm 0.00 in0.0 mm 0.00 in0.0 mm
06:15 AM 45.1°F7.3°C 41.0°F5.0°C 82% 6.2 mph WSW10.0 kmh WSW 8.1 mph13.0 kmh 29.18 in988.1 mb 0.00 in0.0 mm 0.00 in0.0 mm 0.00 in0.0 mm
06:20 AM 45.1°F7.3°C 41.0°F5.0°C 82% 4.7 mph WSW7.6 kmh WSW 7.4 mph11.9 kmh 29.18 in988.1 mb 0.00 in0.0 mm 0.00 in0.0 mm 0.00 in0.0 mm
06:25 AM 45.3°F7.4°C 41.0°F5.0°C 82% 6.3 mph WSW10.1 kmh WSW 10.7 mph17.2 kmh 29.18 in988.1 mb 0.00 in0.0 mm 0.00 in0.0 mm 0.00 in0.0 mm
06:30 AM 45.3°F7.4°C 41.0°F5.0°C 82% 7.4 mph W11.9 kmh W 10.7 mph17.2 kmh 29.18 in988.1 mb 0.00 in0.0 mm 0.00 in0.0 mm 0.00 in0.0 mm
06:35 AM 45.1°F7.3°C 41.0°F5.0°C 82% 7.1 mph WSW11.4 kmh WSW 9.8 mph15.8 kmh 29.18 in988.1 mb 0.00 in0.0 mm 0.00 in0.0 mm 0.00 in0.0 mm
06:40 AM 45.1°F7.3°C 41.0°F5.0°C 83% 7.4 mph WSW11.9 kmh WSW 9.8 mph15.8 kmh 29.18 in988.1 mb 0.00 in0.0 mm 0.00 in0.0 mm 0.00 in0.0 mm
06:45 AM 45.1°F7.3°C 41.0°F5.0°C 83% 6.8 mph WSW10.9 kmh WSW 9.2 mph14.8 kmh 29.18 in988.1 mb 0.00 in0.0 mm 0.00 in0.0 mm 0.00 in0.0 mm
06:50 AM 45.1°F7.3°C 41.0°F5.0°C 82% 6.8 mph WSW10.9 kmh WSW 12.8 mph20.6 kmh 29.18 in988.1 mb 0.00 in0.0 mm 0.00 in0.0 mm 0.00 in0.0 mm
06:55 AM 45.1°F7.3°C 41.0°F5.0°C 83% 7.4 mph WSW11.9 kmh WSW 12.8 mph20.6 kmh 29.18 in988.1 mb 0.00 in0.0 mm 0.00 in0.0 mm 0.00 in0.0 mm
07:00 AM 45.1°F7.3°C 41.0°F5.0°C 83% 7.5 mph WSW12.1 kmh WSW 11.2 mph18.0 kmh 29.18 in988.1 mb 0.00 in0.0 mm 0.00 in0.0 mm 0.00 in0.0 mm
07:05 AM 45.1°F7.3°C 41.0°F5.0°C 83% 6.8 mph WSW10.9 kmh WSW 10.1 mph16.3 kmh 29.18 in988.1 mb 0.00 in0.0 mm 0.00 in0.0 mm 0.00 in0.0 mm
07:10 AM 45.1°F7.3°C 41.0°F5.0°C 83% 5.1 mph WSW8.2 kmh WSW 7.6 mph12.2 kmh 29.18 in988.1 mb 0.00 in0.0 mm 0.00 in0.0 mm 0.00 in0.0 mm
07:15 AM 45.1°F7.3°C 41.0°F5.0°C 83% 4.0 mph WSW6.4 kmh WSW 5.6 mph9.0 kmh 29.18 in988.1 mb 0.00 in0.0 mm 0.00 in0.0 mm 0.00 in0.0 mm
07:20 AM 45.1°F7.3°C 41.0°F5.0°C 83% 3.9 mph WSW6.3 kmh WSW 7.6 mph12.2 kmh 29.18 in988.1 mb 0.00 in0.0 mm 0.00 in0.0 mm 0.00 in0.0 mm
07:25 AM 45.1°F7.3°C 41.0°F5.0°C 83% 4.8 mph WSW7.7 kmh WSW 7.6 mph12.2 kmh 29.15 in987.1 mb 0.00 in0.0 mm 0.00 in0.0 mm 0.00 in0.0 mm
07:30 AM 45.1°F7.3°C 41.0°F5.0°C 83% 6.1 mph WSW9.8 kmh WSW 10.1 mph16.3 kmh 29.15 in987.1 mb 0.00 in0.0 mm 0.00 in0.0 mm 0.00 in0.0 mm
07:35 AM 45.1°F7.3°C 41.0°F5.0°C 83% 7.7 mph WSW12.4 kmh WSW 11.0 mph17.7 kmh 29.15 in987.1 mb 0.00 in0.0 mm 0.00 in0.0 mm 0.00 in0.0 mm
07:40 AM 45.1°F7.3°C 41.0°F5.0°C 83% 8.0 mph WSW12.9 kmh WSW 11.0 mph17.7 kmh 29.15 in987.1 mb 0.00 in0.0 mm 0.00 in0.0 mm 0.00 in0.0 mm
07:45 AM 45.1°F7.3°C 41.0°F5.0°C 83% 6.0 mph WSW9.7 kmh WSW 10.1 mph16.3 kmh 29.15 in987.1 mb 0.00 in0.0 mm 0.00 in0.0 mm 0.00 in0.0 mm
07:50 AM 45.0°F7.2°C 41.0°F5.0°C 83% 5.3 mph SW8.5 kmh SW 7.2 mph11.6 kmh 29.15 in987.1 mb 0.00 in0.0 mm 0.00 in0.0 mm 0.00 in0.0 mm
07:55 AM 45.0°F7.2°C 41.0°F5.0°C 83% 4.5 mph SW7.2 kmh SW 7.2 mph11.6 kmh 29.15 in987.1 mb 0.00 in0.0 mm 0.00 in0.0 mm 0.00 in0.0 mm
08:00 AM 45.0°F7.2°C 41.0°F5.0°C 83% 4.0 mph WSW6.4 kmh WSW 6.9 mph11.1 kmh 29.15 in987.1 mb 0.00 in0.0 mm 0.00 in0.0 mm 0.00 in0.0 mm
08:05 AM 45.1°F7.3°C 41.0°F5.0°C 83% 3.9 mph SW6.3 kmh SW 6.3 mph10.1 kmh 29.15 in987.1 mb 0.00 in0.0 mm 0.00 in0.0 mm 0.00 in0.0 mm
08:10 AM 45.0°F7.2°C 41.0°F5.0°C 83% 3.6 mph WSW5.8 kmh WSW 6.3 mph10.1 kmh 29.09 in985.1 mb 0.00 in0.0 mm 0.00 in0.0 mm 0.00 in0.0 mm
08:15 AM 45.1°F7.3°C 41.0°F5.0°C 84% 3.8 mph WSW6.1 kmh WSW 5.6 mph9.0 kmh 29.09 in985.1 mb 0.00 in0.0 mm 0.00 in0.0 mm 0.00 in0.0 mm
08:20 AM 45.1°F7.3°C 41.0°F5.0°C 84% 3.7 mph WSW6.0 kmh WSW 5.6 mph9.0 kmh 29.09 in985.1 mb 0.00 in0.0 mm 0.00 in0.0 mm 0.00 in0.0 mm
08:25 AM 45.1°F7.3°C 41.0°F5.0°C 84% 3.1 mph WSW5.0 kmh WSW 5.6 mph9.0 kmh 29.12 in986.1 mb 0.00 in0.0 mm 0.00 in0.0 mm 0.00 in0.0 mm
08:30 AM 45.1°F7.3°C 41.0°F5.0°C 84% 3.5 mph WSW5.6 kmh WSW 5.6 mph9.0 kmh 29.12 in986.1 mb 0.00 in0.0 mm 0.00 in0.0 mm 0.00 in0.0 mm
08:35 AM 45.1°F7.3°C 41.0°F5.0°C 84% 3.9 mph SW6.3 kmh SW 7.8 mph12.6 kmh 29.12 in986.1 mb 0.00 in0.0 mm 0.00 in0.0 mm 0.00 in0.0 mm
08:40 AM 45.1°F7.3°C 41.0°F5.0°C 84% 3.8 mph WSW6.1 kmh WSW 7.8 mph12.6 kmh 29.12 in986.1 mb 0.00 in0.0 mm 0.00 in0.0 mm 0.00 in0.0 mm
08:45 AM 45.3°F7.4°C 41.0°F5.0°C 84% 4.1 mph SW6.6 kmh SW 7.2 mph11.6 kmh 29.12 in986.1 mb 0.00 in0.0 mm 0.00 in0.0 mm 0.00 in0.0 mm
08:50 AM 45.3°F7.4°C 41.0°F5.0°C 84% 3.8 mph SW6.1 kmh SW 7.4 mph11.9 kmh 29.12 in986.1 mb 0.00 in0.0 mm 0.00 in0.0 mm 0.00 in0.0 mm
08:55 AM 45.3°F7.4°C 41.0°F5.0°C 84% 4.6 mph SW7.4 kmh SW 10.3 mph16.6 kmh 29.12 in986.1 mb 0.00 in0.0 mm 0.00 in0.0 mm 0.00 in0.0 mm
09:00 AM 45.3°F7.4°C 41.0°F5.0°C 84% 5.5 mph SW8.9 kmh SW 10.3 mph16.6 kmh 29.12 in986.1 mb 0.00 in0.0 mm 0.00 in0.0 mm 0.00 in0.0 mm
09:05 AM 45.3°F7.4°C 41.0°F5.0°C 84% 3.8 mph SW6.1 kmh SW 5.8 mph9.3 kmh 29.12 in986.1 mb 0.00 in0.0 mm 0.00 in0.0 mm 0.00 in0.0 mm
09:10 AM 45.3°F7.4°C 41.0°F5.0°C 84% 3.8 mph SW6.1 kmh SW 5.8 mph9.3 kmh 29.09 in985.1 mb 0.00 in0.0 mm 0.00 in0.0 mm 0.00 in0.0 mm
09:15 AM 45.3°F7.4°C 41.0°F5.0°C 84% 4.6 mph SW7.4 kmh SW 8.1 mph13.0 kmh 29.09 in985.1 mb 0.00 in0.0 mm 0.00 in0.0 mm 0.00 in0.0 mm
09:20 AM 45.1°F7.3°C 41.0°F5.0°C 84% 4.4 mph SW7.1 kmh SW 8.1 mph13.0 kmh 29.09 in985.1 mb 0.00 in0.0 mm 0.00 in0.0 mm 0.00 in0.0 mm
09:25 AM 45.3°F7.4°C 41.0°F5.0°C 84% 5.0 mph WSW8.0 kmh WSW 8.7 mph14.0 kmh 29.09 in985.1 mb 0.00 in0.0 mm 0.00 in0.0 mm 0.00 in0.0 mm
09:30 AM 45.5°F7.5°C 41.0°F5.0°C 84% 5.4 mph SW8.7 kmh SW 8.7 mph14.0 kmh 29.09 in985.1 mb 0.00 in0.0 mm 0.00 in0.0 mm 0.00 in0.0 mm
09:35 AM 45.7°F7.6°C 41.0°F5.0°C 83% 5.2 mph SW8.4 kmh SW 8.7 mph14.0 kmh 29.09 in985.1 mb 0.00 in0.0 mm 0.00 in0.0 mm 0.00 in0.0 mm
09:40 AM 45.7°F7.6°C 41.0°F5.0°C 83% 5.1 mph SW8.2 kmh SW 8.5 mph13.7 kmh 29.09 in985.1 mb 0.00 in0.0 mm 0.00 in0.0 mm 0.00 in0.0 mm
09:45 AM 45.5°F7.5°C 41.0°F5.0°C 83% 4.4 mph SSW7.1 kmh SSW 8.5 mph13.7 kmh 29.09 in985.1 mb 0.00 in0.0 mm 0.00 in0.0 mm 0.00 in0.0 mm
09:50 AM 45.5°F7.5°C 41.0°F5.0°C 83% 4.2 mph SW6.8 kmh SW 6.3 mph10.1 kmh 29.09 in985.1 mb 0.00 in0.0 mm 0.00 in0.0 mm 0.00 in0.0 mm
09:55 AM 45.7°F7.6°C 41.0°F5.0°C 83% 5.3 mph SW8.5 kmh SW 12.3 mph19.8 kmh 29.09 in985.1 mb 0.00 in0.0 mm 0.00 in0.0 mm 0.00 in0.0 mm
10:00 AM 45.7°F7.6°C 41.0°F5.0°C 83% 6.0 mph SW9.7 kmh SW 12.3 mph19.8 kmh 29.09 in985.1 mb 0.00 in0.0 mm 0.00 in0.0 mm 0.00 in0.0 mm
10:05 AM 45.7°F7.6°C 41.0°F5.0°C 83% 5.3 mph SW8.5 kmh SW 10.1 mph16.3 kmh 29.09 in985.1 mb 0.00 in0.0 mm 0.00 in0.0 mm 0.00 in0.0 mm
10:10 AM 45.7°F7.6°C 41.0°F5.0°C 83% 5.2 mph SSW8.4 kmh SSW 10.7 mph17.2 kmh 29.06 in984.1 mb 0.00 in0.0 mm 0.00 in0.0 mm 0.00 in0.0 mm
10:15 AM 45.7°F7.6°C 41.0°F5.0°C 83% 4.4 mph SSW7.1 kmh SSW 10.7 mph17.2 kmh 29.06 in984.1 mb 0.00 in0.0 mm 0.00 in0.0 mm 0.00 in0.0 mm
10:20 AM 45.9°F7.7°C 41.0°F5.0°C 83% 3.5 mph SSW5.6 kmh SSW 8.1 mph13.0 kmh 29.06 in984.1 mb 0.00 in0.0 mm 0.00 in0.0 mm 0.00 in0.0 mm
10:25 AM 45.9°F7.7°C 41.0°F5.0°C 83% 4.2 mph SW6.8 kmh SW 7.8 mph12.6 kmh 29.06 in984.1 mb 0.00 in0.0 mm 0.00 in0.0 mm 0.00 in0.0 mm
10:30 AM 45.9°F7.7°C 41.0°F5.0°C 83% 5.5 mph SW8.9 kmh SW 9.4 mph15.1 kmh 29.06 in984.1 mb 0.00 in0.0 mm 0.00 in0.0 mm 0.00 in0.0 mm
10:35 AM 45.9°F7.7°C 41.0°F5.0°C 83% 4.4 mph SW7.1 kmh SW 9.4 mph15.1 kmh 29.06 in984.1 mb 0.00 in0.0 mm 0.00 in0.0 mm 0.00 in0.0 mm
10:40 AM 45.9°F7.7°C 41.0°F5.0°C 83% 3.5 mph SW5.6 kmh SW 5.6 mph9.0 kmh 29.06 in984.1 mb 0.00 in0.0 mm 0.00 in0.0 mm 0.00 in0.0 mm
10:45 AM 45.9°F7.7°C 41.0°F5.0°C 83% 4.3 mph SSW6.9 kmh SSW 9.4 mph15.1 kmh 29.06 in984.1 mb 0.00 in0.0 mm 0.00 in0.0 mm 0.00 in0.0 mm
10:50 AM 45.9°F7.7°C 41.0°F5.0°C 82% 3.9 mph SSW6.3 kmh SSW 9.4 mph15.1 kmh 29.06 in984.1 mb 0.00 in0.0 mm 0.00 in0.0 mm 0.00 in0.0 mm
10:55 AM 46.0°F7.8°C 41.0°F5.0°C 82% 3.6 mph SW5.8 kmh SW 7.8 mph12.6 kmh 29.06 in984.1 mb 0.00 in0.0 mm 0.00 in0.0 mm 0.00 in0.0 mm
11:00 AM 46.2°F7.9°C 41.0°F5.0°C 82% 4.0 mph SW6.4 kmh SW 7.8 mph12.6 kmh 29.06 in984.1 mb 0.00 in0.0 mm 0.00 in0.0 mm 0.00 in0.0 mm
11:05 AM 46.4°F8.0°C 42.8°F6.0°C 82% 4.4 mph SW7.1 kmh SW 7.8 mph12.6 kmh 29.06 in984.1 mb 0.00 in0.0 mm 0.00 in0.0 mm 0.00 in0.0 mm
11:10 AM 46.4°F8.0°C 41.0°F5.0°C 81% 3.3 mph SW5.3 kmh SW 7.4 mph11.9 kmh 29.03 in983.1 mb 0.00 in0.0 mm 0.00 in0.0 mm 0.00 in0.0 mm
11:15 AM 46.6°F8.1°C 41.0°F5.0°C 81% 2.8 mph SSW4.5 kmh SSW 6.3 mph10.1 kmh 29.03 in983.1 mb 0.00 in0.0 mm 0.00 in0.0 mm 0.00 in0.0 mm
11:20 AM 46.8°F8.2°C 41.0°F5.0°C 81% 3.2 mph SSW5.1 kmh SSW 7.4 mph11.9 kmh 29.03 in983.1 mb 0.00 in0.0 mm 0.00 in0.0 mm 0.00 in0.0 mm
11:25 AM 46.9°F8.3°C 42.8°F6.0°C 81% 3.0 mph S4.8 kmh S 7.4 mph11.9 kmh 28.97 in981.0 mb 0.00 in0.0 mm 0.00 in0.0 mm 0.00 in0.0 mm
11:30 AM 47.1°F8.4°C 42.8°F6.0°C 80% 3.5 mph SW5.6 kmh SW 9.6 mph15.4 kmh 28.97 in981.0 mb 0.00 in0.0 mm 0.00 in0.0 mm 0.00 in0.0 mm
11:35 AM 47.1°F8.4°C 42.8°F6.0°C 80% 4.9 mph SW7.9 kmh SW 9.6 mph15.4 kmh 28.97 in981.0 mb 0.00 in0.0 mm 0.00 in0.0 mm 0.00 in0.0 mm
11:40 AM 47.1°F8.4°C 42.8°F6.0°C 80% 6.7 mph WSW10.8 kmh WSW 11.0 mph17.7 kmh 28.97 in981.0 mb 0.00 in0.0 mm 0.00 in0.0 mm 0.00 in0.0 mm
11:45 AM 47.1°F8.4°C 42.8°F6.0°C 80% 7.2 mph SW11.6 kmh SW 11.0 mph17.7 kmh 28.97 in981.0 mb 0.00 in0.0 mm 0.00 in0.0 mm 0.00 in0.0 mm
11:50 AM 47.3°F8.5°C 42.8°F6.0°C 80% 5.4 mph SW8.7 kmh SW 10.7 mph17.2 kmh 28.97 in981.0 mb 0.00 in0.0 mm 0.00 in0.0 mm 0.00 in0.0 mm
11:55 AM 47.5°F8.6°C 42.8°F6.0°C 80% 4.5 mph WSW7.2 kmh WSW 8.5 mph13.7 kmh 28.97 in981.0 mb 0.00 in0.0 mm 0.00 in0.0 mm 0.00 in0.0 mm
12:00 PM 47.5°F8.6°C 42.8°F6.0°C 80% 4.8 mph SW7.7 kmh SW 8.5 mph13.7 kmh 28.97 in981.0 mb 0.00 in0.0 mm 0.00 in0.0 mm 0.00 in0.0 mm
12:05 PM 47.5°F8.6°C 42.8°F6.0°C 80% 5.0 mph WSW8.0 kmh WSW 8.5 mph13.7 kmh 28.97 in981.0 mb 0.00 in0.0 mm 0.00 in0.0 mm 0.00 in0.0 mm
12:10 PM 47.7°F8.7°C 42.8°F6.0°C 80% 5.0 mph SW8.0 kmh SW 8.7 mph14.0 kmh 28.97 in981.0 mb 0.00 in0.0 mm 0.00 in0.0 mm 0.00 in0.0 mm
12:15 PM 47.7°F8.7°C 42.8°F6.0°C 80% 4.5 mph SW7.2 kmh SW 8.7 mph14.0 kmh 28.97 in981.0 mb 0.00 in0.0 mm 0.00 in0.0 mm 0.00 in0.0 mm
12:20 PM 47.7°F8.7°C 42.8°F6.0°C 80% 3.7 mph SW6.0 kmh SW 7.2 mph11.6 kmh 28.97 in981.0 mb 0.00 in0.0 mm 0.00 in0.0 mm 0.00 in0.0 mm
12:25 PM 47.7°F8.7°C 42.8°F6.0°C 80% 4.2 mph SW6.8 kmh SW 8.7 mph14.0 kmh 28.97 in981.0 mb 0.00 in0.0 mm 0.00 in0.0 mm 0.00 in0.0 mm
12:30 PM 47.7°F8.7°C 42.8°F6.0°C 79% 3.9 mph SW6.3 kmh SW 8.7 mph14.0 kmh 28.97 in981.0 mb 0.00 in0.0 mm 0.00 in0.0 mm 0.00 in0.0 mm
12:35 PM 47.8°F8.8°C 42.8°F6.0°C 79% 4.0 mph SW6.4 kmh SW 6.3 mph10.1 kmh 28.97 in981.0 mb 0.00 in0.0 mm 0.00 in0.0 mm 0.00 in0.0 mm
12:40 PM 48.0°F8.9°C 42.8°F6.0°C 79% 4.4 mph SW7.1 kmh SW 6.3 mph10.1 kmh 28.94 in980.0 mb 0.00 in0.0 mm 0.00 in0.0 mm 0.00 in0.0 mm
12:45 PM 48.0°F8.9°C 42.8°F6.0°C 79% 4.6 mph SW7.4 kmh SW 8.1 mph13.0 kmh 28.94 in980.0 mb 0.00 in0.0 mm 0.00 in0.0 mm 0.00 in0.0 mm
12:50 PM 48.2°F9.0°C 42.8°F6.0°C 79% 4.8 mph SW7.7 kmh SW 8.1 mph13.0 kmh 28.94 in980.0 mb 0.00 in0.0 mm 0.00 in0.0 mm 0.00 in0.0 mm
12:55 PM 48.2°F9.0°C 42.8°F6.0°C 79% 3.6 mph SW5.8 kmh SW 8.1 mph13.0 kmh 28.94 in980.0 mb 0.00 in0.0 mm 0.00 in0.0 mm 0.00 in0.0 mm
01:00 PM 48.4°F9.1°C 42.8°F6.0°C 79% 3.6 mph SW5.8 kmh SW 6.7 mph10.8 kmh 28.94 in980.0 mb 0.00 in0.0 mm 0.00 in0.0 mm 0.00 in0.0 mm
01:05 PM 48.6°F9.2°C 42.8°F6.0°C 79% 4.5 mph SW7.2 kmh SW 7.8 mph12.6 kmh 28.94 in980.0 mb 0.00 in0.0 mm 0.00 in0.0 mm 0.00 in0.0 mm
01:10 PM 48.7°F9.3°C 42.8°F6.0°C 79% 6.1 mph SSW9.8 kmh SSW 10.7 mph17.2 kmh 28.91 in979.0 mb 0.00 in0.0 mm 0.00 in0.0 mm 0.00 in0.0 mm
01:15 PM 48.9°F9.4°C 42.8°F6.0°C 79% 6.4 mph SW10.3 kmh SW 10.7 mph17.2 kmh 28.91 in979.0 mb 0.00 in0.0 mm 0.00 in0.0 mm 0.00 in0.0 mm
01:20 PM 49.1°F9.5°C 42.8°F6.0°C 79% 5.3 mph SW8.5 kmh SW 8.7 mph14.0 kmh 28.91 in979.0 mb 0.00 in0.0 mm 0.00 in0.0 mm 0.00 in0.0 mm
01:25 PM 49.1°F9.5°C 42.8°F6.0°C 78% 5.7 mph SW9.2 kmh SW 10.7 mph17.2 kmh 28.88 in978.0 mb 0.00 in0.0 mm 0.00 in0.0 mm 0.00 in0.0 mm
01:30 PM 49.1°F9.5°C 42.8°F6.0°C 78% 5.2 mph SSW8.4 kmh SSW 10.7 mph17.2 kmh 28.88 in978.0 mb 0.00 in0.0 mm 0.00 in0.0 mm 0.00 in0.0 mm
01:35 PM 49.1°F9.5°C 42.8°F6.0°C 78% 6.3 mph SSW10.1 kmh SSW 10.7 mph17.2 kmh 28.88 in978.0 mb 0.00 in0.0 mm 0.00 in0.0 mm 0.00 in0.0 mm
01:40 PM 48.9°F9.4°C 42.8°F6.0°C 78% 7.5 mph SSW12.1 kmh SSW 12.1 mph19.5 kmh 28.88 in978.0 mb 0.00 in0.0 mm 0.00 in0.0 mm 0.00 in0.0 mm
01:45 PM 48.9°F9.4°C 42.8°F6.0°C 78% 6.0 mph SSW9.7 kmh SSW 12.1 mph19.5 kmh 28.88 in978.0 mb 0.00 in0.0 mm 0.00 in0.0 mm 0.00 in0.0 mm
01:50 PM 49.1°F9.5°C 42.8°F6.0°C 78% 4.6 mph S7.4 kmh S 8.1 mph13.0 kmh 28.88 in978.0 mb 0.00 in0.0 mm 0.00 in0.0 mm 0.00 in0.0 mm
01:55 PM 49.1°F9.5°C 42.8°F6.0°C 78% 3.9 mph S6.3 kmh S 7.6 mph12.2 kmh 28.85 in977.0 mb 0.00 in0.0 mm 0.00 in0.0 mm 0.00 in0.0 mm
02:00 PM 49.1°F9.5°C 42.8°F6.0°C 78% 4.3 mph SSW6.9 kmh SSW 8.5 mph13.7 kmh 28.85 in977.0 mb 0.00 in0.0 mm 0.00 in0.0 mm 0.00 in0.0 mm
02:05 PM 48.9°F9.4°C 42.8°F6.0°C 78% 5.0 mph S8.0 kmh S 9.8 mph15.8 kmh 28.85 in977.0 mb 0.00 in0.0 mm 0.00 in0.0 mm 0.00 in0.0 mm
02:10 PM 48.9°F9.4°C 42.8°F6.0°C 78% 6.4 mph S10.3 kmh S 9.8 mph15.8 kmh 28.85 in977.0 mb 0.00 in0.0 mm 0.00 in0.0 mm 0.00 in0.0 mm
02:15 PM 48.9°F9.4°C 42.8°F6.0°C 78% 6.2 mph SSW10.0 kmh SSW 9.8 mph15.8 kmh 28.85 in977.0 mb 0.00 in0.0 mm 0.00 in0.0 mm 0.00 in0.0 mm
02:20 PM 49.1°F9.5°C 42.8°F6.0°C 78% 5.5 mph S8.9 kmh S 8.5 mph13.7 kmh 28.85 in977.0 mb 0.00 in0.0 mm 0.00 in0.0 mm 0.00 in0.0 mm
02:25 PM 48.9°F9.4°C 42.8°F6.0°C 78% 6.2 mph SSW10.0 kmh SSW 8.5 mph13.7 kmh 28.82 in976.0 mb 0.00 in0.0 mm 0.00 in0.0 mm 0.00 in0.0 mm
02:30 PM 48.9°F9.4°C 42.8°F6.0°C 78% 5.9 mph SSW9.5 kmh SSW 7.6 mph12.2 kmh 28.82 in976.0 mb 0.00 in0.0 mm 0.00 in0.0 mm 0.00 in0.0 mm
02:35 PM 48.7°F9.3°C 42.8°F6.0°C 78% 6.9 mph SSW11.1 kmh SSW 17.2 mph27.7 kmh 28.82 in976.0 mb 0.00 in0.0 mm 0.00 in0.0 mm 0.00 in0.0 mm
02:40 PM 48.6°F9.2°C 42.8°F6.0°C 78% 8.0 mph SSW12.9 kmh SSW 17.2 mph27.7 kmh 28.82 in976.0 mb 0.00 in0.0 mm 0.00 in0.0 mm 0.00 in0.0 mm
02:45 PM 48.6°F9.2°C 42.8°F6.0°C 79% 7.3 mph SSW11.7 kmh SSW 12.8 mph20.6 kmh 28.82 in976.0 mb 0.00 in0.0 mm 0.00 in0.0 mm 0.00 in0.0 mm
02:50 PM 48.6°F9.2°C 42.8°F6.0°C 79% 8.2 mph S13.2 kmh S 12.8 mph20.6 kmh 28.82 in976.0 mb 0.00 in0.0 mm 0.00 in0.0 mm 0.00 in0.0 mm
02:55 PM 48.4°F9.1°C 42.8°F6.0°C 79% 6.9 mph S11.1 kmh S 10.7 mph17.2 kmh 28.62 in969.2 mb 0.00 in0.0 mm 0.00 in0.0 mm 0.00 in0.0 mm
03:00 PM 48.4°F9.1°C 42.8°F6.0°C 79% 5.9 mph SSW9.5 kmh SSW 10.3 mph16.6 kmh 28.62 in969.2 mb 0.00 in0.0 mm 0.00 in0.0 mm 0.00 in0.0 mm
03:05 PM 48.4°F9.1°C 42.8°F6.0°C 79% 6.9 mph SSW11.1 kmh SSW 11.2 mph18.0 kmh 28.62 in969.2 mb 0.00 in0.0 mm 0.00 in0.0 mm 0.00 in0.0 mm
03:10 PM 48.4°F9.1°C 42.8°F6.0°C 79% 6.1 mph SW9.8 kmh SW 11.2 mph18.0 kmh 28.82 in976.0 mb 0.00 in0.0 mm 0.00 in0.0 mm 0.00 in0.0 mm
03:15 PM 48.2°F9.0°C 42.8°F6.0°C 79% 5.4 mph SW8.7 kmh SW 8.7 mph14.0 kmh 28.82 in976.0 mb 0.00 in0.0 mm 0.00 in0.0 mm 0.00 in0.0 mm
03:20 PM 48.2°F9.0°C 42.8°F6.0°C 79% 5.6 mph SW9.0 kmh SW 8.7 mph14.0 kmh 28.82 in976.0 mb 0.00 in0.0 mm 0.00 in0.0 mm 0.00 in0.0 mm
03:25 PM 48.0°F8.9°C 42.8°F6.0°C 79% 6.4 mph SW10.3 kmh SW 13.6 mph21.9 kmh 28.82 in976.0 mb 0.00 in0.0 mm 0.00 in0.0 mm 0.00 in0.0 mm
03:30 PM 48.0°F8.9°C 42.8°F6.0°C 79% 7.2 mph SSW11.6 kmh SSW 13.6 mph21.9 kmh 28.82 in976.0 mb 0.00 in0.0 mm 0.00 in0.0 mm 0.00 in0.0 mm
03:35 PM 48.0°F8.9°C 42.8°F6.0°C 79% 6.6 mph SSW10.6 kmh SSW 10.1 mph16.3 kmh 28.82 in976.0 mb 0.00 in0.0 mm 0.00 in0.0 mm 0.00 in0.0 mm
03:40 PM 47.8°F8.8°C 42.8°F6.0°C 79% 5.3 mph SSW8.5 kmh SSW 8.7 mph14.0 kmh 28.82 in976.0 mb 0.00 in0.0 mm 0.00 in0.0 mm 0.00 in0.0 mm
03:45 PM 47.8°F8.8°C 42.8°F6.0°C 79% 4.3 mph S6.9 kmh S 6.3 mph10.1 kmh 28.82 in976.0 mb 0.00 in0.0 mm 0.00 in0.0 mm 0.00 in0.0 mm
03:50 PM 47.8°F8.8°C 42.8°F6.0°C 79% 4.8 mph S7.7 kmh S 8.1 mph13.0 kmh 28.82 in976.0 mb 0.00 in0.0 mm 0.00 in0.0 mm 0.00 in0.0 mm
03:55 PM 47.8°F8.8°C 42.8°F6.0°C 79% 5.0 mph S8.0 kmh S 8.1 mph13.0 kmh 28.80 in975.3 mb 0.00 in0.0 mm 0.00 in0.0 mm 0.00 in0.0 mm
04:00 PM 47.8°F8.8°C 42.8°F6.0°C 79% 5.4 mph S8.7 kmh S 8.1 mph13.0 kmh 28.80 in975.3 mb 0.00 in0.0 mm 0.00 in0.0 mm 0.00 in0.0 mm
04:05 PM 47.7°F8.7°C 42.8°F6.0°C 79% 6.3 mph S10.1 kmh S 8.5 mph13.7 kmh 28.80 in975.3 mb 0.00 in0.0 mm 0.00 in0.0 mm 0.00 in0.0 mm
04:10 PM 47.7°F8.7°C 42.8°F6.0°C 79% 6.8 mph S10.9 kmh S 12.5 mph20.1 kmh 28.80 in975.3 mb 0.00 in0.0 mm 0.00 in0.0 mm 0.00 in0.0 mm
04:15 PM 47.5°F8.6°C 42.8°F6.0°C 79% 7.1 mph S11.4 kmh S 12.5 mph20.1 kmh 28.80 in975.3 mb 0.00 in0.0 mm 0.00 in0.0 mm 0.00 in0.0 mm
04:20 PM 47.5°F8.6°C 42.8°F6.0°C 79% 5.8 mph S9.3 kmh S 7.6 mph12.2 kmh 28.80 in975.3 mb 0.00 in0.0 mm 0.00 in0.0 mm 0.00 in0.0 mm
04:25 PM 47.5°F8.6°C 42.8°F6.0°C 79% 5.5 mph S8.9 kmh S 7.6 mph12.2 kmh 28.77 in974.3 mb 0.00 in0.0 mm 0.00 in0.0 mm 0.00 in0.0 mm
04:30 PM 47.3°F8.5°C 42.8°F6.0°C 80% 6.8 mph S10.9 kmh S 14.8 mph23.8 kmh 28.77 in974.3 mb 0.00 in0.0 mm 0.00 in0.0 mm 0.00 in0.0 mm
04:35 PM 47.3°F8.5°C 42.8°F6.0°C 80% 6.3 mph S10.1 kmh S 14.8 mph23.8 kmh 28.77 in974.3 mb 0.00 in0.0 mm 0.00 in0.0 mm 0.00 in0.0 mm
04:40 PM 47.1°F8.4°C 42.8°F6.0°C 80% 5.1 mph S8.2 kmh S 8.7 mph14.0 kmh 28.77 in974.3 mb 0.00 in0.0 mm 0.00 in0.0 mm 0.00 in0.0 mm
04:45 PM 47.1°F8.4°C 42.8°F6.0°C 80% 6.4 mph S10.3 kmh S 10.1 mph16.3 kmh 28.77 in974.3 mb 0.00 in0.0 mm 0.00 in0.0 mm 0.00 in0.0 mm
04:50 PM 47.1°F8.4°C 42.8°F6.0°C 80% 6.1 mph S9.8 kmh S 10.1 mph16.3 kmh 28.77 in974.3 mb 0.00 in0.0 mm 0.00 in0.0 mm 0.00 in0.0 mm
04:55 PM 47.1°F8.4°C 42.8°F6.0°C 80% 5.8 mph S9.3 kmh S 7.6 mph12.2 kmh 28.74 in973.2 mb 0.00 in0.0 mm 0.00 in0.0 mm 0.00 in0.0 mm
05:00 PM 47.1°F8.4°C 42.8°F6.0°C 80% 5.5 mph S8.9 kmh S 7.6 mph12.2 kmh 28.74 in973.2 mb 0.00 in0.0 mm 0.00 in0.0 mm 0.00 in0.0 mm
05:05 PM 46.9°F8.3°C 42.8°F6.0°C 80% 5.5 mph S8.9 kmh S 10.1 mph16.3 kmh 28.74 in973.2 mb 0.00 in0.0 mm 0.00 in0.0 mm 0.00 in0.0 mm
05:10 PM 47.1°F8.4°C 42.8°F6.0°C 80% 7.1 mph S11.4 kmh S 11.9 mph19.2 kmh 28.74 in973.2 mb 0.00 in0.0 mm 0.00 in0.0 mm 0.00 in0.0 mm
05:15 PM 46.9°F8.3°C 42.8°F6.0°C 81% 6.3 mph S10.1 kmh S 11.9 mph19.2 kmh 28.74 in973.2 mb 0.00 in0.0 mm 0.00 in0.0 mm 0.00 in0.0 mm
05:20 PM 46.9°F8.3°C 42.8°F6.0°C 81% 5.2 mph S8.4 kmh S 8.1 mph13.0 kmh 28.74 in973.2 mb 0.00 in0.0 mm 0.00 in0.0 mm 0.00 in0.0 mm
05:25 PM 46.8°F8.2°C 41.0°F5.0°C 81% 5.3 mph S8.5 kmh S 8.1 mph13.0 kmh 28.74 in973.2 mb 0.00 in0.0 mm 0.00 in0.0 mm 0.00 in0.0 mm
05:30 PM 46.6°F8.1°C 41.0°F5.0°C 81% 5.0 mph S8.0 kmh S 8.1 mph13.0 kmh 28.74 in973.2 mb 0.00 in0.0 mm 0.00 in0.0 mm 0.00 in0.0 mm
05:35 PM 46.4°F8.0°C 42.8°F6.0°C 82% 5.3 mph S8.5 kmh S 8.5 mph13.7 kmh 28.74 in973.2 mb 0.00 in0.0 mm 0.00 in0.0 mm 0.00 in0.0 mm
05:40 PM 46.4°F8.0°C 42.8°F6.0°C 82% 5.7 mph S9.2 kmh S 8.5 mph13.7 kmh 28.71 in972.2 mb 0.00 in0.0 mm 0.00 in0.0 mm 0.00 in0.0 mm
05:45 PM 46.4°F8.0°C 42.8°F6.0°C 82% 4.8 mph S7.7 kmh S 7.4 mph11.9 kmh 28.71 in972.2 mb 0.00 in0.0 mm 0.00 in0.0 mm 0.00 in0.0 mm
05:50 PM 46.4°F8.0°C 42.8°F6.0°C 83% 4.5 mph S7.2 kmh S 6.3 mph10.1 kmh 28.71 in972.2 mb 0.06 in1.5 mm 0.72 in18.3 mm 0.06 in1.5 mm
05:55 PM 46.2°F7.9°C 41.0°F5.0°C 83% 5.4 mph S8.7 kmh S 8.7 mph14.0 kmh 28.71 in972.2 mb 0.06 in1.5 mm 0.00 in0.0 mm 0.06 in1.5 mm
06:00 PM 46.2°F7.9°C 41.0°F5.0°C 83% 5.4 mph S8.7 kmh S 8.7 mph14.0 kmh 28.71 in972.2 mb 0.06 in1.5 mm 0.00 in0.0 mm 0.06 in1.5 mm
06:05 PM 46.2°F7.9°C 41.0°F5.0°C 83% 5.0 mph S8.0 kmh S 8.1 mph13.0 kmh 28.71 in972.2 mb 0.06 in1.5 mm 0.00 in0.0 mm 0.06 in1.5 mm
06:10 PM 46.2°F7.9°C 41.0°F5.0°C 83% 4.9 mph S7.9 kmh S 8.1 mph13.0 kmh 28.68 in971.2 mb 0.06 in1.5 mm 0.00 in0.0 mm 0.06 in1.5 mm
06:15 PM 46.0°F7.8°C 41.0°F5.0°C 84% 4.1 mph S6.6 kmh S 5.8 mph9.3 kmh 28.68 in971.2 mb 0.06 in1.5 mm 0.00 in0.0 mm 0.06 in1.5 mm
06:20 PM 46.0°F7.8°C 41.0°F5.0°C 84% 4.5 mph SSW7.2 kmh SSW 7.8 mph12.6 kmh 28.68 in971.2 mb 0.06 in1.5 mm 0.00 in0.0 mm 0.06 in1.5 mm
06:25 PM 46.0°F7.8°C 41.0°F5.0°C 84% 5.6 mph S9.0 kmh S 7.8 mph12.6 kmh 28.68 in971.2 mb 0.06 in1.5 mm 0.00 in0.0 mm 0.06 in1.5 mm
06:30 PM 46.0°F7.8°C 41.0°F5.0°C 84% 5.0 mph S8.0 kmh S 7.8 mph12.6 kmh 28.68 in971.2 mb 0.06 in1.5 mm 0.00 in0.0 mm 0.06 in1.5 mm
06:35 PM 46.0°F7.8°C 41.0°F5.0°C 84% 4.9 mph SSW7.9 kmh SSW 6.9 mph11.1 kmh 28.68 in971.2 mb 0.06 in1.5 mm 0.00 in0.0 mm 0.06 in1.5 mm
06:40 PM 46.0°F7.8°C 41.0°F5.0°C 84% 4.9 mph SSW7.9 kmh SSW 8.5 mph13.7 kmh 28.65 in970.2 mb 0.06 in1.5 mm 0.00 in0.0 mm 0.06 in1.5 mm
06:45 PM 46.0°F7.8°C 41.0°F5.0°C 84% 5.3 mph S8.5 kmh S 8.5 mph13.7 kmh 28.65 in970.2 mb 0.06 in1.5 mm 0.00 in0.0 mm 0.06 in1.5 mm
06:50 PM 46.0°F7.8°C 41.0°F5.0°C 84% 5.7 mph SSW9.2 kmh SSW 7.6 mph12.2 kmh 28.65 in970.2 mb 0.00 in0.0 mm 0.00 in0.0 mm 0.06 in1.5 mm
06:55 PM 46.0°F7.8°C 41.0°F5.0°C 84% 5.6 mph S9.0 kmh S 9.8 mph15.8 kmh 28.65 in970.2 mb 0.00 in0.0 mm 0.00 in0.0 mm 0.06 in1.5 mm
07:00 PM 46.0°F7.8°C 41.0°F5.0°C 84% 5.9 mph SSW9.5 kmh SSW 11.0 mph17.7 kmh 28.65 in970.2 mb 0.06 in1.5 mm 0.07 in1.8 mm 0.11 in2.8 mm
07:05 PM 46.0°F7.8°C 41.0°F5.0°C 84% 5.2 mph SSW8.4 kmh SSW 11.0 mph17.7 kmh 28.65 in970.2 mb 0.06 in1.5 mm 0.00 in0.0 mm 0.11 in2.8 mm
07:10 PM 46.0°F7.8°C 42.8°F6.0°C 85% 4.4 mph SSW7.1 kmh SSW 6.5 mph10.5 kmh 28.62 in969.2 mb 0.06 in1.5 mm 0.00 in0.0 mm 0.11 in2.8 mm
07:15 PM 45.9°F7.7°C 42.8°F6.0°C 85% 3.9 mph SW6.3 kmh SW 6.5 mph10.5 kmh 28.62 in969.2 mb 0.06 in1.5 mm 0.00 in0.0 mm 0.11 in2.8 mm
07:20 PM 45.7°F7.6°C 42.8°F6.0°C 85% 3.6 mph SW5.8 kmh SW 5.4 mph8.7 kmh 28.62 in969.2 mb 0.06 in1.5 mm 0.00 in0.0 mm 0.11 in2.8 mm
07:25 PM 45.7°F7.6°C 42.8°F6.0°C 85% 3.0 mph WSW4.8 kmh WSW 4.0 mph6.4 kmh 28.65 in970.2 mb 0.06 in1.5 mm 0.00 in0.0 mm 0.11 in2.8 mm
07:30 PM 45.5°F7.5°C 42.8°F6.0°C 85% 2.6 mph WSW4.2 kmh WSW 3.8 mph6.1 kmh 28.65 in970.2 mb 0.06 in1.5 mm 0.00 in0.0 mm 0.11 in2.8 mm
07:35 PM 45.5°F7.5°C 42.8°F6.0°C 85% 2.4 mph WSW3.9 kmh WSW 3.8 mph6.1 kmh 28.65 in970.2 mb 0.06 in1.5 mm 0.00 in0.0 mm 0.11 in2.8 mm
07:40 PM 45.3°F7.4°C 41.0°F5.0°C 85% 2.6 mph SW4.2 kmh SW 3.8 mph6.1 kmh 28.41 in962.1 mb 0.06 in1.5 mm 0.00 in0.0 mm 0.11 in2.8 mm
07:45 PM 45.1°F7.3°C 41.0°F5.0°C 85% 3.5 mph WSW5.6 kmh WSW 5.6 mph9.0 kmh 28.41 in962.1 mb 0.06 in1.5 mm 0.00 in0.0 mm 0.11 in2.8 mm
07:50 PM 45.0°F7.2°C 41.0°F5.0°C 85% 4.4 mph WSW7.1 kmh WSW 6.5 mph10.5 kmh 28.41 in962.1 mb 0.17 in4.3 mm 1.32 in33.5 mm 0.22 in5.6 mm
07:55 PM 44.6°F7.0°C 41.0°F5.0°C 85% 4.0 mph WSW6.4 kmh WSW 6.5 mph10.5 kmh 28.38 in961.1 mb 0.17 in4.3 mm 0.00 in0.0 mm 0.22 in5.6 mm
08:00 PM 44.6°F7.0°C 41.0°F5.0°C 84% 3.8 mph WSW6.1 kmh WSW 6.5 mph10.5 kmh 28.38 in961.1 mb 0.11 in2.8 mm 0.00 in0.0 mm 0.22 in5.6 mm
08:05 PM 44.4°F6.9°C 41.0°F5.0°C 84% 3.9 mph WSW6.3 kmh WSW 6.5 mph10.5 kmh 28.38 in961.1 mb 0.11 in2.8 mm 0.00 in0.0 mm 0.22 in5.6 mm
08:10 PM 44.2°F6.8°C 39.2°F4.0°C 84% 3.8 mph WSW6.1 kmh WSW 6.5 mph10.5 kmh 28.62 in969.2 mb 0.11 in2.8 mm 0.00 in0.0 mm 0.22 in5.6 mm
08:15 PM 44.1°F6.7°C 39.2°F4.0°C 84% 4.1 mph WSW6.6 kmh WSW 6.5 mph10.5 kmh 28.62 in969.2 mb 0.11 in2.8 mm 0.00 in0.0 mm 0.22 in5.6 mm
08:20 PM 43.9°F6.6°C 39.2°F4.0°C 84% 3.7 mph WSW6.0 kmh WSW 6.3 mph10.1 kmh 28.62 in969.2 mb 0.11 in2.8 mm 0.00 in0.0 mm 0.22 in5.6 mm
08:25 PM 43.7°F6.5°C 39.2°F4.0°C 84% 2.9 mph WSW4.7 kmh WSW 4.9 mph7.9 kmh 28.62 in969.2 mb 0.11 in2.8 mm 0.00 in0.0 mm 0.22 in5.6 mm
08:30 PM 43.7°F6.5°C 39.2°F4.0°C 84% 3.0 mph WSW4.8 kmh WSW 4.3 mph6.9 kmh 28.62 in969.2 mb 0.11 in2.8 mm 0.00 in0.0 mm 0.22 in5.6 mm
08:35 PM 43.7°F6.5°C 39.2°F4.0°C 84% 3.4 mph WSW5.5 kmh WSW 5.6 mph9.0 kmh 28.62 in969.2 mb 0.11 in2.8 mm 0.00 in0.0 mm 0.22 in5.6 mm
08:40 PM 43.5°F6.4°C 39.2°F4.0°C 84% 3.9 mph WSW6.3 kmh WSW 5.8 mph9.3 kmh 28.62 in969.2 mb 0.11 in2.8 mm 0.00 in0.0 mm 0.22 in5.6 mm
08:45 PM 43.3°F6.3°C 39.2°F4.0°C 84% 3.0 mph W4.8 kmh W 5.8 mph9.3 kmh 28.62 in969.2 mb 0.11 in2.8 mm 0.00 in0.0 mm 0.22 in5.6 mm
08:50 PM 43.3°F6.3°C 39.2°F4.0°C 84% 2.9 mph WSW4.7 kmh WSW 5.8 mph9.3 kmh 28.62 in969.2 mb 0.00 in0.0 mm 0.00 in0.0 mm 0.22 in5.6 mm
08:55 PM 43.2°F6.2°C 39.2°F4.0°C 84% 3.6 mph WSW5.8 kmh WSW 5.8 mph9.3 kmh 28.62 in969.2 mb 0.00 in0.0 mm 0.00 in0.0 mm 0.22 in5.6 mm
09:00 PM 43.2°F6.2°C 39.2°F4.0°C 84% 2.9 mph WSW4.7 kmh WSW 5.8 mph9.3 kmh 28.62 in969.2 mb 0.00 in0.0 mm 0.00 in0.0 mm 0.22 in5.6 mm
09:05 PM 43.0°F6.1°C 39.2°F4.0°C 84% 2.1 mph WSW3.4 kmh WSW 2.9 mph4.7 kmh 28.62 in969.2 mb 0.00 in0.0 mm 0.00 in0.0 mm 0.22 in5.6 mm
09:10 PM 43.0°F6.1°C 39.2°F4.0°C 84% 2.0 mph WSW3.2 kmh WSW 3.6 mph5.8 kmh 28.62 in969.2 mb 0.00 in0.0 mm 0.00 in0.0 mm 0.22 in5.6 mm
09:15 PM 43.0°F6.1°C 39.2°F4.0°C 84% 1.7 mph WSW2.7 kmh WSW 3.6 mph5.8 kmh 28.62 in969.2 mb 0.00 in0.0 mm 0.00 in0.0 mm 0.22 in5.6 mm
09:20 PM 43.0°F6.1°C 39.2°F4.0°C 84% 1.5 mph WSW2.4 kmh WSW 2.7 mph4.3 kmh 28.62 in969.2 mb 0.00 in0.0 mm 0.00 in0.0 mm 0.22 in5.6 mm
09:25 PM 42.8°F6.0°C 39.2°F4.0°C 85% 1.4 mph WSW2.3 kmh WSW 2.9 mph4.7 kmh 28.62 in969.2 mb 0.00 in0.0 mm 0.00 in0.0 mm 0.22 in5.6 mm
09:30 PM 42.8°F6.0°C 39.2°F4.0°C 85% 0.9 mph WSW1.4 kmh WSW 2.9 mph4.7 kmh 28.62 in969.2 mb 0.00 in0.0 mm 0.00 in0.0 mm 0.22 in5.6 mm
09:35 PM 42.8°F6.0°C 39.2°F4.0°C 85% 0.6 mph WSW1.0 kmh WSW 1.3 mph2.1 kmh 28.62 in969.2 mb 0.00 in0.0 mm 0.00 in0.0 mm 0.22 in5.6 mm
09:40 PM 42.6°F5.9°C 39.2°F4.0°C 85% 1.1 mph WSW1.8 kmh WSW 2.2 mph3.5 kmh 28.62 in969.2 mb 0.00 in0.0 mm 0.00 in0.0 mm 0.22 in5.6 mm
09:45 PM 42.6°F5.9°C 39.2°F4.0°C 85% 2.0 mph WSW3.2 kmh WSW 3.4 mph5.5 kmh 28.62 in969.2 mb 0.00 in0.0 mm 0.00 in0.0 mm 0.22 in5.6 mm
09:50 PM 42.4°F5.8°C 39.2°F4.0°C 85% 1.8 mph WSW2.9 kmh WSW 3.4 mph5.5 kmh 28.62 in969.2 mb 0.00 in0.0 mm 0.00 in0.0 mm 0.22 in5.6 mm
09:55 PM 42.4°F5.8°C 39.2°F4.0°C 85% 1.4 mph WSW2.3 kmh WSW 2.5 mph4.0 kmh 28.62 in969.2 mb 0.00 in0.0 mm 0.00 in0.0 mm 0.22 in5.6 mm
10:00 PM 42.3°F5.7°C 39.2°F4.0°C 85% 2.1 mph WSW3.4 kmh WSW 4.5 mph7.2 kmh 28.62 in969.2 mb 0.00 in0.0 mm 0.00 in0.0 mm 0.22 in5.6 mm
10:05 PM 42.3°F5.7°C 39.2°F4.0°C 85% 2.1 mph SW3.4 kmh SW 4.5 mph7.2 kmh 28.62 in969.2 mb 0.00 in0.0 mm 0.00 in0.0 mm 0.22 in5.6 mm
10:10 PM 42.3°F5.7°C 39.2°F4.0°C 85% 1.7 mph WSW2.7 kmh WSW 2.7 mph4.3 kmh 28.62 in969.2 mb 0.00 in0.0 mm 0.00 in0.0 mm 0.22 in5.6 mm
10:15 PM 42.3°F5.7°C 39.2°F4.0°C 85% 1.1 mph WSW1.8 kmh WSW 2.5 mph4.0 kmh 28.62 in969.2 mb 0.00 in0.0 mm 0.00 in0.0 mm 0.22 in5.6 mm
10:20 PM 42.1°F5.6°C 39.2°F4.0°C 85% 0.6 mph WSW1.0 kmh WSW 1.6 mph2.6 kmh 28.62 in969.2 mb 0.00 in0.0 mm 0.00 in0.0 mm 0.22 in5.6 mm
10:25 PM 41.9°F5.5°C 39.2°F4.0°C 85% 1.2 mph WSW1.9 kmh WSW 2.2 mph3.5 kmh 28.62 in969.2 mb 0.00 in0.0 mm 0.00 in0.0 mm 0.22 in5.6 mm
10:30 PM 41.9°F5.5°C 39.2°F4.0°C 85% 1.4 mph WSW2.3 kmh WSW 2.2 mph3.5 kmh 28.62 in969.2 mb 0.00 in0.0 mm 0.00 in0.0 mm 0.22 in5.6 mm
10:35 PM 41.7°F5.4°C 37.4°F3.0°C 85% 1.1 mph WSW1.8 kmh WSW 2.0 mph3.2 kmh 28.62 in969.2 mb 0.00 in0.0 mm 0.00 in0.0 mm 0.22 in5.6 mm
10:40 PM 41.5°F5.3°C 37.4°F3.0°C 85% 0.5 mph WSW0.8 kmh WSW 2.0 mph3.2 kmh 28.62 in969.2 mb 0.00 in0.0 mm 0.00 in0.0 mm 0.22 in5.6 mm
10:45 PM 41.5°F5.3°C 37.4°F3.0°C 85% 0.2 mph NNW0.3 kmh NNW 1.1 mph1.8 kmh 28.62 in969.2 mb 0.00 in0.0 mm 0.00 in0.0 mm 0.22 in5.6 mm
10:50 PM 41.7°F5.4°C 37.4°F3.0°C 86% 1.1 mph WNW1.8 kmh WNW 2.7 mph4.3 kmh 28.62 in969.2 mb 0.00 in0.0 mm 0.00 in0.0 mm 0.22 in5.6 mm
10:55 PM 41.7°F5.4°C 37.4°F3.0°C 85% 2.3 mph W3.7 kmh W 3.6 mph5.8 kmh 28.56 in967.2 mb 0.00 in0.0 mm 0.00 in0.0 mm 0.22 in5.6 mm
11:00 PM 41.7°F5.4°C 37.4°F3.0°C 85% 2.2 mph WSW3.5 kmh WSW 3.6 mph5.8 kmh 28.56 in967.2 mb 0.00 in0.0 mm 0.00 in0.0 mm 0.22 in5.6 mm
11:05 PM 41.7°F5.4°C 37.4°F3.0°C 85% 1.6 mph WSW2.6 kmh WSW 2.9 mph4.7 kmh 28.56 in967.2 mb 0.00 in0.0 mm 0.00 in0.0 mm 0.22 in5.6 mm
11:10 PM 41.7°F5.4°C 37.4°F3.0°C 85% 1.3 mph W2.1 kmh W 2.5 mph4.0 kmh 28.62 in969.2 mb 0.00 in0.0 mm 0.00 in0.0 mm 0.22 in5.6 mm
11:15 PM 41.7°F5.4°C 37.4°F3.0°C 85% 0.9 mph WSW1.4 kmh WSW 1.1 mph1.8 kmh 28.62 in969.2 mb 0.00 in0.0 mm 0.00 in0.0 mm 0.22 in5.6 mm
11:20 PM 41.7°F5.4°C 37.4°F3.0°C 86% 0.5 mph W0.8 kmh W 1.3 mph2.1 kmh 28.62 in969.2 mb 0.00 in0.0 mm 0.00 in0.0 mm 0.22 in5.6 mm
11:25 PM 41.7°F5.4°C 37.4°F3.0°C 86% 0.4 mph W0.6 kmh W 1.3 mph2.1 kmh 28.35 in960.0 mb 0.00 in0.0 mm 0.00 in0.0 mm 0.22 in5.6 mm
11:30 PM 41.7°F5.4°C 37.4°F3.0°C 86% 0.2 mph WSW0.3 kmh WSW 1.1 mph1.8 kmh 28.35 in960.0 mb 0.13 in3.3 mm 1.56 in39.6 mm 0.35 in8.9 mm
11:35 PM 41.7°F5.4°C 37.4°F3.0°C 86% 0.1 mph W0.2 kmh W 0.9 mph1.4 kmh 28.35 in960.0 mb 0.13 in3.3 mm 0.00 in0.0 mm 0.35 in8.9 mm
11:40 PM 41.7°F5.4°C 37.4°F3.0°C 86% 0.7 mph WSW1.1 kmh WSW 1.3 mph2.1 kmh 28.59 in968.2 mb 0.13 in3.3 mm 0.00 in0.0 mm 0.35 in8.9 mm
11:45 PM 41.7°F5.4°C 37.4°F3.0°C 86% 0.9 mph WSW1.4 kmh WSW 1.6 mph2.6 kmh 28.59 in968.2 mb 0.13 in3.3 mm 0.00 in0.0 mm 0.35 in8.9 mm
11:50 PM 41.7°F5.4°C 37.4°F3.0°C 86% 0.6 mph WSW1.0 kmh WSW 1.6 mph2.6 kmh 28.59 in968.2 mb 0.13 in3.3 mm 0.00 in0.0 mm 0.35 in8.9 mm
11:55 PM 41.7°F5.4°C 37.4°F3.0°C 86% 0.4 mph WSW0.6 kmh WSW 1.3 mph2.1 kmh 28.59 in968.2 mb 0.24 in6.1 mm 1.32 in33.5 mm 0.46 in11.7 mm